createdAt,value
2023-05-22T00:00:41.734Z,30.90
2023-05-22T00:03:10.738Z,32.53
2023-05-22T00:05:41.113Z,29.20
2023-05-22T00:08:11.726Z,37.37
2023-05-22T00:10:40.766Z,34.40
2023-05-22T00:13:10.883Z,31.90
2023-05-22T00:15:39.442Z,32.40
2023-05-22T00:18:08.317Z,37.43
2023-05-22T00:20:39.547Z,34.43
2023-05-22T00:23:10.262Z,37.73
2023-05-22T00:25:39.335Z,36.20
2023-05-22T00:28:07.891Z,32.53
2023-05-22T00:30:38.129Z,40.47
2023-05-22T00:33:07.127Z,34.60
2023-05-22T00:35:35.822Z,30.60
2023-05-22T00:38:06.246Z,42.27
2023-05-22T00:40:35.074Z,40.03
2023-05-22T00:43:08.507Z,38.33
2023-05-22T00:45:38.812Z,38.63
2023-05-22T00:48:09.664Z,36.53
2023-05-22T00:50:38.768Z,36.20
2023-05-22T00:53:08.509Z,42.97
2023-05-22T00:55:37.270Z,41.30
2023-05-22T00:58:07.929Z,40.07
2023-05-22T01:00:39.986Z,42.10
2023-05-22T01:03:10.033Z,41.57
2023-05-22T01:05:39.548Z,45.07
2023-05-22T01:08:09.296Z,51.70
2023-05-22T01:16:42.872Z,46.67
2023-05-22T01:19:26.694Z,40.17
2023-05-22T01:22:08.815Z,45.13
2023-05-22T01:24:57.558Z,47.60
2023-05-22T01:28:03.210Z,48.60
2023-05-22T01:31:01.948Z,44.27
2023-05-22T01:33:36.450Z,46.80
2023-05-22T01:36:08.984Z,41.03
2023-05-22T01:38:38.428Z,47.17
2023-05-22T01:41:07.414Z,41.20
2023-05-22T01:43:36.731Z,41.40
2023-05-22T01:46:07.077Z,38.63
2023-05-22T01:48:36.794Z,42.70
2023-05-22T01:51:12.303Z,45.37
2023-05-22T01:53:47.279Z,47.70
2023-05-22T01:56:21.392Z,40.90
2023-05-22T01:58:57.504Z,40.80
2023-05-22T02:01:30.149Z,47.23
2023-05-22T02:03:59.930Z,42.00
2023-05-22T02:06:33.313Z,46.03
2023-05-22T02:09:03.333Z,46.40
2023-05-22T02:11:34.943Z,48.60
2023-05-22T02:14:03.674Z,44.77
2023-05-22T02:16:33.739Z,47.87
2023-05-22T02:19:06.338Z,49.93
2023-05-22T02:21:36.377Z,46.47
2023-05-22T02:24:05.371Z,42.47
2023-05-22T02:26:34.107Z,43.07
2023-05-22T02:29:02.950Z,47.37
2023-05-22T02:31:33.473Z,58.40
2023-05-22T02:34:05.357Z,47.93
2023-05-22T02:36:34.844Z,45.13
2023-05-22T02:39:04.219Z,45.63
2023-05-22T02:41:33.240Z,40.70
2023-05-22T02:44:01.906Z,38.57
2023-05-22T02:46:30.554Z,43.33
2023-05-22T02:49:00.717Z,43.23
2023-05-22T02:51:29.576Z,38.83
2023-05-22T02:53:58.292Z,53.63
2023-05-22T02:56:28.986Z,50.07
2023-05-22T02:58:57.753Z,40.13
2023-05-22T03:01:27.224Z,53.63
2023-05-22T03:03:57.059Z,64.93
2023-05-22T03:06:27.486Z,92.37
2023-05-22T03:08:56.141Z,89.37
2023-05-22T03:11:25.681Z,103.47
2023-05-22T03:13:54.573Z,76.27
2023-05-22T03:16:23.399Z,53.77
2023-05-22T03:18:53.449Z,115.10
2023-05-22T03:21:22.111Z,119.17
2023-05-22T03:23:52.110Z,87.43
2023-05-22T03:26:21.347Z,117.40
2023-05-22T03:28:50.680Z,105.27
2023-05-22T03:31:19.651Z,81.50
2023-05-22T03:34:03.143Z,81.50
2023-05-22T03:36:33.994Z,97.13
2023-05-22T03:39:04.131Z,109.50
2023-05-22T03:41:37.841Z,118.97
2023-05-22T03:44:07.656Z,127.17
2023-05-22T03:46:36.330Z,111.20
2023-05-22T03:49:05.077Z,54.20
2023-05-22T03:51:33.689Z,97.93
2023-05-22T03:54:03.662Z,77.60
2023-05-22T03:56:32.280Z,64.90
2023-05-22T03:59:00.894Z,117.40
2023-05-22T04:01:29.874Z,52.43
2023-05-22T04:03:58.559Z,64.77
2023-05-22T04:06:27.233Z,74.93
2023-05-22T04:08:55.795Z,116.70
2023-05-22T04:11:27.281Z,76.23
2023-05-22T04:13:55.861Z,53.40
2023-05-22T04:16:25.585Z,74.70
2023-05-22T04:18:54.413Z,48.37
2023-05-22T04:21:23.642Z,90.57
2023-05-22T04:23:52.182Z,74.10
2023-05-22T04:26:20.902Z,60.53
2023-05-22T04:28:50.842Z,63.13
2023-05-22T04:31:19.424Z,118.47
2023-05-22T04:33:48.341Z,78.50
2023-05-22T04:36:17.629Z,68.03
2023-05-22T04:38:47.596Z,60.37
2023-05-22T04:41:17.963Z,52.40
2023-05-22T04:43:48.320Z,85.73
2023-05-22T04:46:18.514Z,68.13
2023-05-22T04:48:47.232Z,48.97
2023-05-22T04:51:17.445Z,44.70
2023-05-22T04:53:49.354Z,40.87
2023-05-22T04:56:31.717Z,73.80
2023-05-22T04:59:08.872Z,43.63
2023-05-22T05:01:39.884Z,39.87
2023-05-22T05:04:08.766Z,46.83
2023-05-22T05:06:37.900Z,55.67
2023-05-22T05:09:07.067Z,48.13
2023-05-22T05:11:36.916Z,50.87
2023-05-22T05:14:05.822Z,48.80
2023-05-22T05:16:34.512Z,51.63
2023-05-22T05:19:04.582Z,38.30
2023-05-22T05:21:33.702Z,44.63
2023-05-22T05:24:03.131Z,46.77
2023-05-22T05:26:32.213Z,52.77
2023-05-22T05:29:00.876Z,44.70
2023-05-22T05:31:42.296Z,47.83
2023-05-22T05:34:35.508Z,41.70
2023-05-22T05:37:06.716Z,38.07
2023-05-22T05:39:35.545Z,43.93
2023-05-22T05:42:07.399Z,34.37
2023-05-22T05:44:36.460Z,34.50
2023-05-22T05:47:08.303Z,31.87
2023-05-22T05:49:38.933Z,33.27
2023-05-22T05:52:09.035Z,31.53
2023-05-22T05:54:38.404Z,32.87
2023-05-22T05:57:15.974Z,29.17
2023-05-22T05:59:44.922Z,32.73
2023-05-22T06:02:39.474Z,33.43
2023-05-22T06:05:15.764Z,27.47
2023-05-22T06:07:44.817Z,25.80
2023-05-22T06:10:13.848Z,27.33
2023-05-22T06:12:56.615Z,24.83
2023-05-22T06:15:25.532Z,27.13
2023-05-22T06:17:54.434Z,29.07
2023-05-22T06:20:25.273Z,24.47
2023-05-22T06:22:53.918Z,26.70
2023-05-22T06:25:23.798Z,21.90
2023-05-22T06:27:52.531Z,24.97
2023-05-22T06:30:38.264Z,22.00
2023-05-22T06:33:14.796Z,19.60
2023-05-22T06:35:45.729Z,22.33
2023-05-22T06:38:14.788Z,23.23
2023-05-22T06:40:45.119Z,23.63
2023-05-22T06:43:20.808Z,25.17
2023-05-22T06:46:12.505Z,27.50
2023-05-22T06:48:52.118Z,21.83
2023-05-22T06:51:27.844Z,28.10
2023-05-22T06:54:06.969Z,26.13
2023-05-22T06:56:37.367Z,27.00
2023-05-22T06:59:12.019Z,24.67
2023-05-22T07:01:59.239Z,22.30
2023-05-22T07:04:36.894Z,25.00
2023-05-22T07:07:12.834Z,22.20
2023-05-22T07:09:41.681Z,23.90
2023-05-22T07:12:11.079Z,18.37
2023-05-22T07:14:39.892Z,21.77
2023-05-22T07:17:08.587Z,19.60
2023-05-22T07:19:42.855Z,16.40
2023-05-22T07:22:12.807Z,18.30
2023-05-22T07:24:42.161Z,15.63
2023-05-22T07:27:11.395Z,18.52
2023-05-22T07:29:40.480Z,22.35
2023-05-22T07:32:10.464Z,18.25
2023-05-22T07:34:39.339Z,16.13
2023-05-22T07:37:13.770Z,16.35
2023-05-22T07:39:43.723Z,13.35
2023-05-22T07:42:14.660Z,19.63
2023-05-22T07:44:50.447Z,17.98
2023-05-22T07:47:20.559Z,16.75
2023-05-22T07:49:50.701Z,17.67
2023-05-22T07:52:21.804Z,16.10
2023-05-22T07:54:51.479Z,16.23
2023-05-22T07:57:20.397Z,15.73
2023-05-22T07:59:50.742Z,16.15
2023-05-22T08:02:19.758Z,16.75
2023-05-22T08:04:50.389Z,18.70
2023-05-22T08:07:19.102Z,16.55
2023-05-22T08:09:49.175Z,16.85
2023-05-22T08:12:17.790Z,16.88
2023-05-22T08:14:46.477Z,17.98
2023-05-22T08:17:15.195Z,18.63
2023-05-22T08:19:44.063Z,16.45
2023-05-22T08:22:12.763Z,14.43
2023-05-22T08:24:41.517Z,17.00
2023-05-22T08:27:11.458Z,18.27
2023-05-22T08:29:40.686Z,16.83
2023-05-22T08:32:09.636Z,16.80
2023-05-22T08:34:40.185Z,19.73
2023-05-22T08:37:09.385Z,16.67
2023-05-22T08:39:38.053Z,20.08
2023-05-22T08:42:07.372Z,17.83
2023-05-22T08:44:37.421Z,17.50
2023-05-22T08:47:09.949Z,19.75
2023-05-22T08:49:39.995Z,18.33
2023-05-22T08:52:13.670Z,18.65
2023-05-22T08:54:43.707Z,15.32
2023-05-22T08:57:13.062Z,16.95
2023-05-22T08:59:44.597Z,19.48
2023-05-22T09:02:14.707Z,18.08
2023-05-22T09:04:43.827Z,22.95
2023-05-22T09:07:14.536Z,16.80
2023-05-22T09:09:43.311Z,14.82
2023-05-22T09:12:12.472Z,17.52
2023-05-22T09:14:43.301Z,19.45
2023-05-22T09:17:15.414Z,16.20
2023-05-22T09:19:45.938Z,14.25
2023-05-22T09:22:15.272Z,18.73
2023-05-22T09:24:45.521Z,16.50
2023-05-22T09:27:14.132Z,15.18
2023-05-22T09:29:51.979Z,15.43
2023-05-22T09:32:21.609Z,11.23
2023-05-22T09:34:50.565Z,13.57
2023-05-22T09:37:19.831Z,22.58
2023-05-22T09:39:51.487Z,15.27
2023-05-22T09:42:20.666Z,16.75
2023-05-22T09:44:51.561Z,17.60
2023-05-22T09:47:20.262Z,13.48
2023-05-22T09:49:48.925Z,14.10
2023-05-22T09:52:19.146Z,14.18
2023-05-22T09:54:55.443Z,14.23
2023-05-22T09:57:26.347Z,15.82
2023-05-22T09:59:58.537Z,12.68
2023-05-22T10:02:29.320Z,12.73
2023-05-22T10:04:58.836Z,14.90
2023-05-22T10:07:33.530Z,13.05
2023-05-22T10:10:06.227Z,12.93
2023-05-22T10:12:40.512Z,14.80
2023-05-22T10:15:12.214Z,13.50
2023-05-22T10:17:41.845Z,19.30
2023-05-22T10:20:13.256Z,13.02
2023-05-22T10:22:42.574Z,13.88
2023-05-22T10:25:11.833Z,22.67
2023-05-22T10:27:41.658Z,16.35
2023-05-22T10:30:21.822Z,15.20
2023-05-22T10:33:16.639Z,15.13
2023-05-22T10:35:49.843Z,16.63
2023-05-22T10:38:38.350Z,17.40
2023-05-22T10:41:07.862Z,18.17
2023-05-22T10:43:42.089Z,17.10
2023-05-22T10:46:13.737Z,13.32
2023-05-22T10:48:46.317Z,14.50
2023-05-22T10:51:16.195Z,10.88
2023-05-22T10:53:46.034Z,14.43
2023-05-22T10:56:15.839Z,10.95
2023-05-22T10:58:56.056Z,13.40
2023-05-22T11:01:28.508Z,12.57
2023-05-22T11:04:15.814Z,13.43
2023-05-22T11:06:49.893Z,12.93
2023-05-22T11:09:28.621Z,12.18
2023-05-22T11:12:20.792Z,12.88
2023-05-22T11:14:54.692Z,12.18
2023-05-22T11:17:27.703Z,17.00
2023-05-22T11:20:01.397Z,14.35
2023-05-22T11:22:34.658Z,11.77
2023-05-22T11:25:07.970Z,11.90
2023-05-22T11:27:37.561Z,12.38
2023-05-22T11:30:07.451Z,11.23
2023-05-22T11:32:38.915Z,12.73
2023-05-22T11:35:09.182Z,11.57
2023-05-22T11:37:40.900Z,11.60
2023-05-22T11:40:11.125Z,12.38
2023-05-22T11:42:39.895Z,9.95
2023-05-22T11:45:09.336Z,11.43
2023-05-22T11:47:39.553Z,9.65
2023-05-22T11:50:10.889Z,10.13
2023-05-22T11:52:42.401Z,11.65
2023-05-22T11:55:11.868Z,9.02
2023-05-22T11:57:40.466Z,7.22
2023-05-22T12:00:10.684Z,8.27
2023-05-22T12:02:47.955Z,9.18
2023-05-22T12:05:17.063Z,9.07
2023-05-22T12:07:46.064Z,7.35
2023-05-22T12:10:15.709Z,9.23
2023-05-22T12:12:45.234Z,7.00
2023-05-22T12:15:14.688Z,9.75
2023-05-22T12:17:44.481Z,6.10
2023-05-22T12:20:15.306Z,6.03
2023-05-22T12:22:44.655Z,10.23
2023-05-22T12:25:18.075Z,7.43
2023-05-22T12:27:47.475Z,9.00
2023-05-22T12:30:16.931Z,12.18
2023-05-22T12:32:49.950Z,10.73
2023-05-22T12:35:20.268Z,9.80
2023-05-22T12:37:52.757Z,11.18
2023-05-22T12:40:21.353Z,9.57
2023-05-22T12:42:50.232Z,11.25
2023-05-22T12:45:19.047Z,12.25
2023-05-22T12:47:48.007Z,8.02
2023-05-22T12:50:16.778Z,10.85
2023-05-22T12:52:46.774Z,13.73
2023-05-22T12:55:15.338Z,10.98
2023-05-22T12:57:43.897Z,9.55
2023-05-22T13:00:13.983Z,10.18
2023-05-22T13:02:42.815Z,8.45
2023-05-22T13:05:11.697Z,12.10
2023-05-22T13:07:40.704Z,11.00
2023-05-22T13:10:11.445Z,7.70
2023-05-22T13:12:40.447Z,13.52
2023-05-22T13:15:11.596Z,11.48
2023-05-22T13:17:40.665Z,17.08
2023-05-22T13:20:10.317Z,18.37
2023-05-22T13:22:39.127Z,18.37
2023-05-22T13:25:08.323Z,16.57
2023-05-22T13:27:38.473Z,19.40
2023-05-22T13:30:08.390Z,14.37
2023-05-22T13:32:37.223Z,13.00
2023-05-22T13:35:06.649Z,14.67
2023-05-22T13:37:35.354Z,13.90
2023-05-22T13:40:03.972Z,10.57
2023-05-22T13:42:32.828Z,13.53
2023-05-22T13:45:02.971Z,8.37
2023-05-22T13:47:31.991Z,12.27
2023-05-22T13:50:00.610Z,11.77
2023-05-22T13:52:29.525Z,11.43
2023-05-22T13:54:58.162Z,10.07
2023-05-22T13:57:26.823Z,10.77
2023-05-22T13:59:55.920Z,13.57
2023-05-22T14:02:26.049Z,14.43
2023-05-22T14:04:54.918Z,6.93
2023-05-22T14:07:23.853Z,7.80
2023-05-22T14:09:52.556Z,7.38
2023-05-22T14:12:21.150Z,7.07
2023-05-22T14:14:49.769Z,7.78
2023-05-22T14:17:18.558Z,8.15
2023-05-22T14:19:48.757Z,7.45
2023-05-22T14:22:17.479Z,9.75
2023-05-22T14:24:46.349Z,9.38
2023-05-22T14:27:15.314Z,10.07
2023-05-22T14:29:43.862Z,7.60
2023-05-22T14:32:12.861Z,8.07
2023-05-22T14:34:41.409Z,7.88
2023-05-22T14:37:11.320Z,11.98
2023-05-22T14:39:39.921Z,8.02
2023-05-22T14:42:09.050Z,10.02
2023-05-22T14:44:37.635Z,8.23
2023-05-22T14:47:06.770Z,26.27
2023-05-22T14:49:35.407Z,10.88
2023-05-22T14:52:04.065Z,10.03
2023-05-22T14:54:34.725Z,8.90
2023-05-22T14:57:03.447Z,10.53
2023-05-22T14:59:33.796Z,11.07
2023-05-22T15:02:02.471Z,9.17
2023-05-22T15:04:31.247Z,8.53
2023-05-22T15:06:59.948Z,6.50
2023-05-22T15:09:28.585Z,7.27
2023-05-22T15:11:58.541Z,7.40
2023-05-22T15:14:27.178Z,7.93
2023-05-22T15:16:55.804Z,6.33
2023-05-22T15:19:25.330Z,11.47
2023-05-22T15:21:56.059Z,12.53
2023-05-22T15:24:27.025Z,5.83
2023-05-22T15:26:58.259Z,8.10
2023-05-22T15:29:28.967Z,13.73
2023-05-22T15:31:57.681Z,7.13
2023-05-22T15:34:26.370Z,5.43
2023-05-22T15:36:54.992Z,5.57
2023-05-22T15:39:23.819Z,6.30
2023-05-22T15:42:05.371Z,7.83
2023-05-22T15:44:36.721Z,6.73
2023-05-22T15:47:05.976Z,8.53
2023-05-22T15:49:34.822Z,3.67
2023-05-22T15:52:03.641Z,4.20
2023-05-22T15:54:32.370Z,7.50
2023-05-22T15:57:00.957Z,4.50
2023-05-22T15:59:29.551Z,4.80
2023-05-22T16:01:59.557Z,5.70
2023-05-22T16:04:28.202Z,3.55
2023-05-22T16:06:56.868Z,6.43
2023-05-22T16:09:25.507Z,3.78
2023-05-22T16:11:54.062Z,3.08
2023-05-22T16:14:22.851Z,4.00
2023-05-22T16:16:51.649Z,4.15
2023-05-22T16:19:21.709Z,3.72
2023-05-22T16:21:50.396Z,6.00
2023-05-22T16:24:19.168Z,5.03
2023-05-22T16:26:47.812Z,4.85
2023-05-22T16:29:16.669Z,3.80
2023-05-22T16:31:45.477Z,2.70
2023-05-22T16:34:14.244Z,3.08
2023-05-22T16:36:44.300Z,4.07
2023-05-22T16:39:12.976Z,3.63
2023-05-22T16:41:41.561Z,4.30
2023-05-22T16:44:10.124Z,4.80
2023-05-22T16:46:38.775Z,8.77
2023-05-22T16:49:07.494Z,4.60
2023-05-22T16:51:36.245Z,5.80
2023-05-22T16:54:06.470Z,5.07
2023-05-22T16:56:35.107Z,5.03
2023-05-22T16:59:05.090Z,3.30
2023-05-22T17:01:33.951Z,4.77
2023-05-22T17:04:02.710Z,7.90
2023-05-22T17:06:31.862Z,4.30
2023-05-22T17:09:00.657Z,7.73
2023-05-22T17:11:30.867Z,3.57
2023-05-22T17:13:59.517Z,5.20
2023-05-22T17:16:28.293Z,3.40
2023-05-22T17:18:57.091Z,4.13
2023-05-22T17:21:25.835Z,5.57
2023-05-22T17:23:54.462Z,6.47
2023-05-22T17:26:23.164Z,4.73
2023-05-22T17:28:53.147Z,6.73
2023-05-22T17:31:22.042Z,5.97
2023-05-22T17:33:50.718Z,4.97
2023-05-22T17:36:19.298Z,6.13
2023-05-22T17:38:47.913Z,5.63
2023-05-22T17:41:16.681Z,4.30
2023-05-22T17:43:45.416Z,6.47
2023-05-22T17:46:15.459Z,9.27
2023-05-22T17:48:44.156Z,4.90
2023-05-22T17:51:12.745Z,5.83
2023-05-22T17:53:41.583Z,5.13
2023-05-22T17:56:10.255Z,4.50
2023-05-22T17:58:38.942Z,5.50
2023-05-22T18:01:07.766Z,6.47
2023-05-22T18:03:38.070Z,7.70
2023-05-22T18:06:07.292Z,5.83
2023-05-22T18:08:36.075Z,8.47
2023-05-22T18:11:05.340Z,7.53
2023-05-22T18:13:34.212Z,5.87
2023-05-22T18:16:04.095Z,7.30
2023-05-22T18:18:33.076Z,13.50
2023-05-22T18:21:03.951Z,15.10
2023-05-22T18:23:32.882Z,13.80
2023-05-22T18:26:01.540Z,5.70
2023-05-22T18:28:30.115Z,7.53
2023-05-22T18:30:58.714Z,14.20
2023-05-22T18:33:27.589Z,14.47
2023-05-22T18:35:57.291Z,8.93
2023-05-22T18:38:27.306Z,8.33
2023-05-22T18:40:56.394Z,9.53
2023-05-22T18:43:28.177Z,9.57
2023-05-22T18:45:57.835Z,7.23
2023-05-22T18:48:27.308Z,6.47
2023-05-22T18:50:57.410Z,7.47
2023-05-22T18:53:27.604Z,7.67
2023-05-22T18:55:56.214Z,6.57
2023-05-22T18:58:24.788Z,9.00
2023-05-22T19:00:55.486Z,7.77
2023-05-22T19:03:24.393Z,8.60
2023-05-22T19:05:53.307Z,9.73
2023-05-22T19:08:21.915Z,12.07
2023-05-22T19:10:52.080Z,13.63
2023-05-22T19:13:20.688Z,9.27
2023-05-22T19:15:49.337Z,8.10
2023-05-22T19:18:18.314Z,8.93
2023-05-22T19:20:46.979Z,11.50
2023-05-22T19:23:15.752Z,11.80
2023-05-22T19:25:44.381Z,11.03
2023-05-22T19:28:14.454Z,9.43
2023-05-22T19:30:43.476Z,10.60
2023-05-22T19:33:14.778Z,14.23
2023-05-22T19:35:43.574Z,13.80
2023-05-22T19:38:12.174Z,12.30
2023-05-22T19:40:41.671Z,12.57
2023-05-22T19:43:10.494Z,8.07
2023-05-22T19:45:40.457Z,8.17
2023-05-22T19:48:09.614Z,13.77
2023-05-22T19:50:39.428Z,8.77
2023-05-22T19:53:08.916Z,12.17
2023-05-22T19:55:37.769Z,12.37
2023-05-22T19:58:06.424Z,11.00
2023-05-22T20:00:35.780Z,9.27
2023-05-22T20:03:06.379Z,9.13
2023-05-22T20:05:35.483Z,9.53
2023-05-22T20:08:04.227Z,9.87
2023-05-22T20:10:33.461Z,11.73
2023-05-22T20:13:02.182Z,10.43
2023-05-22T20:15:31.249Z,12.07
2023-05-22T20:18:02.805Z,10.00
2023-05-22T20:20:33.464Z,10.53
2023-05-22T20:23:02.327Z,10.83
2023-05-22T20:25:31.032Z,12.77
2023-05-22T20:27:59.771Z,10.73
2023-05-22T20:30:28.385Z,10.90
2023-05-22T20:32:57.142Z,15.33
2023-05-22T20:35:26.429Z,9.90
2023-05-22T20:37:58.410Z,12.23
2023-05-22T20:40:27.517Z,11.13
2023-05-22T20:42:57.157Z,13.83
2023-05-22T20:45:26.521Z,12.93
2023-05-22T20:47:55.751Z,14.63
2023-05-22T20:50:24.730Z,10.43
2023-05-22T20:52:53.401Z,11.37
2023-05-22T20:55:23.398Z,8.97
2023-05-22T20:57:52.053Z,11.60
2023-05-22T21:00:20.802Z,9.70
2023-05-22T21:02:49.453Z,10.10
2023-05-22T21:05:18.208Z,10.77
2023-05-22T21:07:46.809Z,7.13
2023-05-22T21:10:15.420Z,7.00
2023-05-22T21:12:46.550Z,9.13
2023-05-22T21:15:15.501Z,5.83
2023-05-22T21:17:44.220Z,10.00
2023-05-22T21:20:13.118Z,5.47
2023-05-22T21:22:41.802Z,7.20
2023-05-22T21:25:11.160Z,7.47
2023-05-22T21:27:39.836Z,5.20
2023-05-22T21:30:14.440Z,6.13
2023-05-22T21:32:43.649Z,5.60
2023-05-22T21:35:12.368Z,8.40
2023-05-22T21:37:41.354Z,9.90
2023-05-22T21:40:10.844Z,4.80
2023-05-22T21:42:46.695Z,5.17
2023-05-22T21:45:17.336Z,5.10
2023-05-22T21:47:46.337Z,7.83
2023-05-22T21:50:14.942Z,6.17
2023-05-22T21:52:44.279Z,4.27
2023-05-22T21:55:13.007Z,6.93
2023-05-22T21:57:41.815Z,5.47
2023-05-22T22:00:11.585Z,5.43
2023-05-22T22:02:41.787Z,7.07
2023-05-22T22:05:11.892Z,7.80
2023-05-22T22:07:40.545Z,8.43
2023-05-22T22:10:09.762Z,5.97
2023-05-22T22:12:38.331Z,5.17
2023-05-22T22:15:07.828Z,8.30
2023-05-22T22:17:37.363Z,5.77
2023-05-22T22:20:08.539Z,9.17
2023-05-22T22:22:37.188Z,6.67
2023-05-22T22:25:06.798Z,7.23
2023-05-22T22:27:35.549Z,6.13
2023-05-22T22:30:04.899Z,6.77
2023-05-22T22:32:33.732Z,10.43
2023-05-22T22:35:02.328Z,7.50
2023-05-22T22:37:32.519Z,5.63
2023-05-22T22:40:01.107Z,12.30
2023-05-22T22:42:29.740Z,9.23
2023-05-22T22:44:58.485Z,6.53
2023-05-22T22:47:28.554Z,8.67
2023-05-22T22:49:58.022Z,7.20
2023-05-22T22:52:26.629Z,6.57
2023-05-22T22:54:56.550Z,10.23
2023-05-22T22:57:25.173Z,7.93
2023-05-22T22:59:53.878Z,11.43
2023-05-22T23:02:22.499Z,13.63
2023-05-22T23:04:51.255Z,6.90
2023-05-22T23:07:19.910Z,8.80
2023-05-22T23:09:48.586Z,9.40
2023-05-22T23:12:18.952Z,9.97
2023-05-22T23:14:47.525Z,9.63
2023-05-22T23:17:16.532Z,12.03
2023-05-22T23:19:46.175Z,17.27
2023-05-22T23:22:15.011Z,9.07
2023-05-22T23:24:43.577Z,8.80
2023-05-22T23:27:12.326Z,9.23
2023-05-22T23:29:42.688Z,12.90
2023-05-22T23:32:13.865Z,11.23
2023-05-22T23:34:43.381Z,17.97
2023-05-22T23:37:12.031Z,12.33
2023-05-22T23:39:40.642Z,14.13
2023-05-22T23:42:10.995Z,22.57
2023-05-22T23:44:39.819Z,12.53
2023-05-22T23:47:10.160Z,11.53
2023-05-22T23:49:38.885Z,12.40
2023-05-22T23:52:08.002Z,15.67
2023-05-22T23:54:36.655Z,16.83
2023-05-22T23:57:05.852Z,12.63
2023-05-22T23:59:34.511Z,15.97
